createdAt,value
2023-04-11T00:01:23.134Z,4.57
2023-04-11T00:03:49.759Z,4.20
2023-04-11T00:06:16.281Z,5.05
2023-04-11T00:08:44.319Z,4.30
2023-04-11T00:11:10.597Z,5.32
2023-04-11T00:13:37.821Z,4.68
2023-04-11T00:16:04.316Z,5.00
2023-04-11T00:18:30.816Z,5.30
2023-04-11T00:20:57.160Z,4.82
2023-04-11T00:23:23.521Z,5.22
2023-04-11T00:25:49.827Z,5.72
2023-04-11T00:28:16.195Z,8.10
2023-04-11T00:30:42.507Z,5.03
2023-04-11T00:33:09.028Z,3.67
2023-04-11T00:35:37.833Z,5.13
2023-04-11T00:38:04.941Z,6.30
2023-04-11T00:40:34.207Z,4.85
2023-04-11T00:43:00.489Z,6.35
2023-04-11T00:45:26.854Z,4.25
2023-04-11T00:47:53.601Z,8.05
2023-04-11T00:50:21.996Z,3.67
2023-04-11T00:52:49.814Z,6.20
2023-04-11T00:55:16.637Z,5.18
2023-04-11T00:57:43.935Z,9.55
2023-04-11T01:00:11.021Z,6.55
2023-04-11T01:02:38.622Z,6.32
2023-04-11T01:05:05.301Z,4.97
2023-04-11T01:07:32.113Z,6.85
2023-04-11T01:09:59.974Z,5.88
2023-04-11T01:12:26.468Z,5.43
2023-04-11T01:14:52.818Z,4.45
2023-04-11T01:17:21.684Z,6.57
2023-04-11T01:19:48.132Z,6.05
2023-04-11T01:22:17.919Z,8.55
2023-04-11T01:24:44.523Z,5.78
2023-04-11T01:27:10.867Z,6.45
2023-04-11T01:29:37.135Z,6.50
2023-04-11T01:32:03.667Z,5.28
2023-04-11T01:34:30.867Z,6.63
2023-04-11T01:36:57.236Z,5.57
2023-04-11T01:39:23.601Z,5.80
2023-04-11T01:41:50.728Z,6.78
2023-04-11T01:44:17.838Z,8.50
2023-04-11T01:46:44.517Z,7.07
2023-04-11T01:49:15.319Z,8.30
2023-04-11T01:51:42.210Z,5.80
2023-04-11T01:54:08.504Z,5.72
2023-04-11T01:56:34.784Z,5.05
2023-04-11T01:59:01.087Z,6.25
2023-04-11T02:01:27.779Z,6.05
2023-04-11T02:03:54.188Z,7.82
2023-04-11T02:06:20.703Z,5.10
2023-04-11T02:08:47.011Z,7.50
2023-04-11T02:11:13.360Z,7.10
2023-04-11T02:13:39.752Z,5.75
2023-04-11T02:16:06.813Z,6.22
2023-04-11T02:18:33.183Z,7.93
2023-04-11T02:20:59.494Z,5.55
2023-04-11T02:23:25.799Z,7.65
2023-04-11T02:25:52.331Z,6.95
2023-04-11T02:28:18.577Z,6.63
2023-04-11T02:30:45.192Z,6.95
2023-04-11T02:33:12.010Z,6.03
2023-04-11T02:35:38.601Z,5.20
2023-04-11T02:38:04.984Z,6.63
2023-04-11T02:40:31.481Z,6.80
2023-04-11T02:42:57.900Z,8.30
2023-04-11T02:45:24.415Z,7.05
2023-04-11T02:47:50.989Z,9.20
2023-04-11T02:50:17.414Z,7.32
2023-04-11T02:52:47.689Z,5.45
2023-04-11T02:55:14.169Z,7.20
2023-04-11T02:57:40.548Z,7.45
2023-04-11T03:00:07.329Z,7.40
2023-04-11T03:02:33.874Z,6.90
2023-04-11T03:05:04.211Z,6.32
2023-04-11T03:07:33.103Z,5.82
2023-04-11T03:10:00.167Z,7.32
2023-04-11T03:12:26.673Z,9.43
2023-04-11T03:14:53.243Z,5.03
2023-04-11T03:17:19.940Z,5.47
2023-04-11T03:19:46.441Z,7.20
2023-04-11T03:22:13.024Z,6.85
2023-04-11T03:24:40.228Z,8.68
2023-04-11T03:27:06.666Z,6.30
2023-04-11T03:29:33.150Z,9.63
2023-04-11T03:31:59.725Z,7.30
2023-04-11T03:34:26.353Z,5.18
2023-04-11T03:36:52.758Z,5.80
2023-04-11T03:39:19.450Z,8.18
2023-04-11T03:41:45.755Z,4.93
2023-04-11T03:44:12.109Z,9.05
2023-04-11T03:46:38.381Z,6.75
2023-04-11T03:49:04.706Z,5.25
2023-04-11T03:51:33.591Z,5.82
2023-04-11T03:53:59.908Z,5.95
2023-04-11T03:56:27.284Z,7.40
2023-04-11T03:58:53.747Z,6.68
2023-04-11T04:01:20.553Z,6.60
2023-04-11T04:03:47.115Z,8.02
2023-04-11T04:06:13.659Z,7.50
2023-04-11T04:08:40.015Z,7.70
2023-04-11T04:11:06.386Z,10.20
2023-04-11T04:13:33.260Z,8.90
2023-04-11T04:16:00.654Z,5.97
2023-04-11T04:18:28.261Z,6.72
2023-04-11T04:20:54.513Z,9.95
2023-04-11T04:23:20.778Z,7.47
2023-04-11T04:25:50.654Z,9.60
2023-04-11T04:28:20.482Z,8.40
2023-04-11T04:30:54.413Z,6.25
2023-04-11T04:33:21.106Z,5.05
2023-04-11T04:35:47.522Z,9.45
2023-04-11T04:38:17.393Z,7.40
2023-04-11T04:40:44.045Z,6.82
2023-04-11T04:43:11.712Z,7.40
2023-04-11T04:45:39.962Z,7.57
2023-04-11T04:48:06.347Z,8.48
2023-04-11T04:50:32.664Z,6.55
2023-04-11T04:52:58.960Z,6.82
2023-04-11T04:55:26.029Z,6.43
2023-04-11T04:57:52.341Z,5.53
2023-04-11T05:00:21.800Z,7.88
2023-04-11T05:02:49.508Z,7.88
2023-04-11T05:05:16.163Z,6.05
2023-04-11T05:07:42.605Z,6.45
2023-04-11T05:10:09.163Z,9.00
2023-04-11T05:12:35.561Z,6.43
2023-04-11T05:15:01.979Z,6.45
2023-04-11T05:17:29.490Z,7.47
2023-04-11T05:19:56.011Z,7.63
2023-04-11T05:22:22.422Z,7.88
2023-04-11T05:24:48.723Z,6.78
2023-04-11T05:27:15.669Z,8.80
2023-04-11T05:29:41.994Z,8.18
2023-04-11T05:32:08.275Z,6.45
2023-04-11T05:34:49.772Z,7.03
2023-04-11T05:37:16.316Z,8.68
2023-04-11T05:39:42.600Z,11.13
2023-04-11T05:42:08.877Z,9.00
2023-04-11T05:44:35.206Z,7.65
2023-04-11T05:47:01.580Z,7.93
2023-04-11T05:49:28.011Z,11.73
2023-04-11T05:51:54.280Z,6.05
2023-04-11T05:54:31.407Z,8.88
2023-04-11T05:56:57.803Z,11.23
2023-04-11T05:59:27.056Z,9.10
2023-04-11T06:01:54.806Z,7.53
2023-04-11T06:04:21.558Z,9.30
2023-04-11T06:06:47.954Z,9.70
2023-04-11T06:09:14.481Z,10.45
2023-04-11T06:11:40.880Z,7.78
2023-04-11T06:14:07.152Z,6.32
2023-04-11T06:16:36.262Z,8.23
2023-04-11T06:19:05.129Z,5.20
2023-04-11T06:21:34.350Z,7.10
2023-04-11T06:24:10.923Z,7.75
2023-04-11T06:26:37.310Z,8.50
2023-04-11T06:29:04.688Z,10.25
2023-04-11T06:31:31.144Z,7.55
2023-04-11T06:33:57.712Z,7.53
2023-04-11T06:36:24.178Z,6.07
2023-04-11T06:38:50.552Z,9.93
2023-04-11T06:41:16.804Z,11.63
2023-04-11T06:43:43.147Z,5.32
2023-04-11T06:46:09.522Z,6.68
2023-04-11T06:48:35.794Z,7.28
2023-04-11T06:51:02.139Z,7.68
2023-04-11T06:53:28.487Z,7.20
2023-04-11T06:55:54.739Z,7.55
2023-04-11T06:58:21.053Z,7.30
2023-04-11T07:00:47.322Z,5.68
2023-04-11T07:03:14.056Z,9.52
2023-04-11T07:05:40.463Z,6.97
2023-04-11T07:08:06.735Z,8.35
2023-04-11T07:10:33.018Z,6.75
2023-04-11T07:12:59.352Z,6.63
2023-04-11T07:15:25.705Z,7.03
2023-04-11T07:17:52.809Z,7.13
2023-04-11T07:20:19.341Z,8.90
2023-04-11T07:22:45.624Z,6.28
2023-04-11T07:25:12.302Z,7.00
2023-04-11T07:27:38.917Z,6.60
2023-04-11T07:30:05.593Z,7.50
2023-04-11T07:32:31.897Z,9.25
2023-04-11T07:34:58.178Z,6.60
2023-04-11T07:37:24.491Z,6.13
2023-04-11T07:39:51.893Z,6.75
2023-04-11T07:42:18.405Z,5.43
2023-04-11T07:44:44.809Z,6.47
2023-04-11T07:47:11.167Z,7.38
2023-04-11T07:49:37.523Z,4.88
2023-04-11T07:52:03.842Z,5.35
2023-04-11T07:54:30.309Z,6.90
2023-04-11T07:56:57.096Z,5.43
2023-04-11T07:59:23.419Z,5.40
2023-04-11T08:01:57.442Z,7.22
2023-04-11T08:04:24.053Z,6.05
2023-04-11T08:06:50.438Z,5.68
2023-04-11T08:09:16.764Z,7.88
2023-04-11T08:11:43.072Z,4.55
2023-04-11T08:14:09.399Z,5.47
2023-04-11T08:16:36.329Z,7.05
2023-04-11T08:19:02.713Z,4.60
2023-04-11T08:21:28.945Z,4.82
2023-04-11T08:23:55.449Z,9.15
2023-04-11T08:26:22.271Z,6.97
2023-04-11T08:28:48.590Z,4.55
2023-04-11T08:31:15.507Z,4.88
2023-04-11T08:33:41.960Z,5.82
2023-04-11T08:36:14.250Z,5.15
2023-04-11T08:38:40.785Z,6.28
2023-04-11T08:41:07.299Z,6.15
2023-04-11T08:43:34.423Z,6.13
2023-04-11T08:46:04.168Z,3.90
2023-04-11T08:48:32.120Z,8.15
2023-04-11T08:50:58.481Z,3.90
2023-04-11T08:53:25.469Z,6.18
2023-04-11T08:55:51.783Z,6.70
2023-04-11T08:58:18.424Z,5.38
2023-04-11T09:00:44.912Z,5.28
2023-04-11T09:03:12.206Z,5.47
2023-04-11T09:05:43.419Z,5.30
2023-04-11T09:08:11.867Z,7.20
2023-04-11T09:10:39.272Z,5.40
2023-04-11T09:13:25.642Z,5.50
2023-04-11T09:16:07.472Z,5.32
2023-04-11T09:18:34.808Z,5.45
2023-04-11T09:21:03.488Z,4.40
2023-04-11T09:23:31.208Z,4.85
2023-04-11T09:25:57.705Z,4.22
2023-04-11T09:28:24.399Z,6.38
2023-04-11T09:30:52.087Z,5.50
2023-04-11T09:33:21.546Z,3.80
2023-04-11T09:35:48.987Z,4.50
2023-04-11T09:38:26.797Z,4.63
2023-04-11T09:40:53.103Z,4.35
2023-04-11T09:43:20.398Z,5.05
2023-04-11T09:45:53.999Z,4.60
2023-04-11T09:48:22.130Z,3.55
2023-04-11T09:50:53.167Z,5.68
2023-04-11T09:53:19.898Z,3.70
2023-04-11T09:55:46.851Z,5.78
2023-04-11T09:58:13.209Z,5.75
2023-04-11T10:00:41.191Z,5.85
2023-04-11T10:03:07.543Z,5.90
2023-04-11T10:05:34.143Z,5.28
2023-04-11T10:08:00.487Z,5.40
2023-04-11T10:10:26.874Z,4.18
2023-04-11T10:12:53.192Z,3.88
2023-04-11T10:15:19.614Z,4.05
2023-04-11T10:18:05.311Z,3.45
2023-04-11T10:20:31.734Z,5.70
2023-04-11T10:22:58.748Z,6.95
2023-04-11T10:25:25.346Z,5.35
2023-04-11T10:28:00.719Z,4.00
2023-04-11T10:30:39.500Z,5.25
2023-04-11T10:33:12.779Z,5.95
2023-04-11T10:36:05.105Z,5.20
2023-04-11T10:38:43.612Z,5.05
2023-04-11T10:41:28.149Z,6.18
2023-04-11T10:44:14.664Z,7.57
2023-04-11T10:46:54.656Z,4.22
2023-04-11T10:49:33.369Z,5.22
2023-04-11T10:52:18.742Z,5.85
2023-04-11T10:54:48.142Z,5.05
2023-04-11T10:57:14.656Z,3.55
2023-04-11T10:59:43.952Z,4.90
2023-04-11T11:02:12.512Z,4.85
2023-04-11T11:04:39.410Z,5.80
2023-04-11T11:07:07.170Z,5.72
2023-04-11T11:09:34.260Z,3.55
2023-04-11T11:12:07.631Z,4.72
2023-04-11T11:14:33.970Z,5.65
2023-04-11T11:17:00.701Z,4.78
2023-04-11T11:19:27.354Z,4.20
2023-04-11T11:21:53.748Z,5.05
2023-04-11T11:24:26.247Z,5.55
2023-04-11T11:26:53.595Z,5.65
2023-04-11T11:29:30.124Z,4.60
2023-04-11T11:31:56.644Z,5.10
2023-04-11T11:34:27.593Z,6.00
2023-04-11T11:36:56.380Z,4.50
2023-04-11T11:39:23.520Z,4.72
2023-04-11T11:41:51.061Z,4.78
2023-04-11T11:44:26.590Z,4.82
2023-04-11T11:47:06.185Z,3.60
2023-04-11T11:49:45.944Z,5.30
2023-04-11T11:52:12.571Z,5.18
2023-04-11T11:54:45.573Z,5.15
2023-04-11T11:57:12.207Z,3.42
2023-04-11T11:59:38.563Z,3.92
2023-04-11T12:02:05.061Z,3.95
2023-04-11T12:04:32.140Z,5.95
2023-04-11T12:07:07.317Z,4.47
2023-04-11T12:09:33.562Z,4.45
2023-04-11T12:11:59.904Z,3.15
2023-04-11T12:14:26.281Z,3.45
2023-04-11T12:16:53.559Z,3.70
2023-04-11T12:19:20.002Z,3.75
2023-04-11T12:21:46.374Z,5.03
2023-04-11T12:24:12.676Z,4.00
2023-04-11T12:26:52.841Z,4.32
2023-04-11T12:29:26.451Z,4.28
2023-04-11T12:31:52.931Z,3.80
2023-04-11T12:34:19.240Z,4.57
2023-04-11T12:36:45.578Z,4.70
2023-04-11T12:39:11.850Z,4.13
2023-04-11T12:41:39.908Z,3.60
2023-04-11T12:44:06.182Z,3.47
2023-04-11T12:46:33.626Z,4.03
2023-04-11T12:49:00.658Z,2.30
2023-04-11T12:51:27.492Z,5.18
2023-04-11T12:53:53.842Z,3.58
2023-04-11T12:56:20.106Z,1.98
2023-04-11T12:58:46.430Z,4.18
2023-04-11T13:01:12.737Z,3.25
2023-04-11T13:03:39.240Z,4.90
2023-04-11T13:06:06.116Z,2.15
2023-04-11T13:08:32.382Z,3.70
2023-04-11T13:10:58.629Z,3.85
2023-04-11T13:13:24.968Z,4.82
2023-04-11T13:15:51.541Z,3.78
2023-04-11T13:18:18.124Z,4.70
2023-04-11T13:20:44.698Z,2.97
2023-04-11T13:23:11.535Z,4.35
2023-04-11T13:25:40.215Z,4.72
2023-04-11T13:28:09.106Z,4.95
2023-04-11T13:30:35.348Z,3.67
2023-04-11T13:33:01.666Z,3.92
2023-04-11T13:35:28.030Z,3.90
2023-04-11T13:37:54.439Z,4.15
2023-04-11T13:40:20.730Z,4.55
2023-04-11T13:42:47.027Z,4.32
2023-04-11T13:45:13.354Z,4.68
2023-04-11T13:47:39.747Z,5.68
2023-04-11T13:50:07.045Z,3.58
2023-04-11T13:52:33.600Z,3.63
2023-04-11T13:54:59.898Z,4.85
2023-04-11T13:57:28.429Z,5.63
2023-04-11T13:59:54.910Z,4.22
2023-04-11T14:02:21.835Z,4.32
2023-04-11T14:04:49.317Z,6.05
2023-04-11T14:07:16.101Z,2.55
2023-04-11T14:09:42.351Z,3.30
2023-04-11T14:12:08.667Z,5.18
2023-04-11T14:14:35.149Z,4.20
2023-04-11T14:17:01.552Z,4.18
2023-04-11T14:19:27.923Z,3.30
2023-04-11T14:21:54.329Z,5.35
2023-04-11T14:24:22.307Z,5.05
2023-04-11T14:26:49.935Z,4.03
2023-04-11T14:29:16.920Z,4.50
2023-04-11T14:31:43.818Z,2.88
2023-04-11T14:34:10.396Z,4.43
2023-04-11T14:36:36.641Z,3.72
2023-04-11T14:39:05.029Z,5.72
2023-04-11T14:41:31.790Z,4.75
2023-04-11T14:43:58.338Z,6.32
2023-04-11T14:46:24.938Z,8.27
2023-04-11T14:48:51.259Z,5.57
2023-04-11T14:51:17.516Z,7.15
2023-04-11T14:53:43.887Z,7.88
2023-04-11T14:56:10.606Z,5.13
2023-04-11T14:58:36.946Z,4.10
2023-04-11T15:01:04.067Z,5.47
2023-04-11T15:03:30.587Z,5.80
2023-04-11T15:05:57.028Z,7.97
2023-04-11T15:08:23.730Z,6.25
2023-04-11T15:10:54.079Z,3.15
2023-04-11T15:13:21.780Z,4.45
2023-04-11T15:15:48.217Z,4.43
2023-04-11T15:18:20.023Z,4.63
2023-04-11T15:20:46.357Z,4.82
2023-04-11T15:23:12.633Z,5.25
2023-04-11T15:25:38.964Z,4.45
2023-04-11T15:28:05.276Z,3.97
2023-04-11T15:30:31.616Z,4.22
2023-04-11T15:32:58.357Z,5.50
2023-04-11T15:35:24.703Z,4.45
2023-04-11T15:37:51.132Z,4.82
2023-04-11T15:40:18.636Z,4.65
2023-04-11T15:42:45.173Z,4.65
2023-04-11T15:45:11.909Z,4.53
2023-04-11T15:47:38.457Z,5.10
2023-04-11T15:50:05.048Z,4.15
2023-04-11T15:52:31.452Z,6.10
2023-04-11T15:54:57.765Z,5.20
2023-04-11T15:57:24.181Z,6.20
2023-04-11T15:59:50.503Z,5.50
2023-04-11T16:02:16.869Z,4.70
2023-04-11T16:04:45.442Z,5.53
2023-04-11T16:07:14.118Z,4.55
2023-04-11T16:09:40.666Z,4.97
2023-04-11T16:12:07.157Z,3.75
2023-04-11T16:14:33.409Z,8.13
2023-04-11T16:17:00.198Z,4.70
2023-04-11T16:19:26.511Z,3.75
2023-04-11T16:21:52.909Z,4.35
2023-04-11T16:24:19.247Z,5.97
2023-04-11T16:26:45.681Z,6.22
2023-04-11T16:29:12.266Z,4.22
2023-04-11T16:31:38.651Z,6.57
2023-04-11T16:34:04.935Z,8.18
2023-04-11T16:36:31.478Z,5.13
2023-04-11T16:38:57.927Z,7.43
2023-04-11T16:41:24.276Z,7.07
2023-04-11T16:43:50.785Z,9.85
2023-04-11T16:46:17.135Z,11.02
2023-04-11T16:48:43.624Z,9.73
2023-04-11T16:51:11.211Z,8.65
2023-04-11T16:53:38.097Z,12.48
2023-04-11T16:56:04.613Z,10.32
2023-04-11T16:58:32.177Z,10.30
2023-04-11T17:00:59.433Z,10.25
2023-04-11T17:03:25.989Z,11.68
2023-04-11T17:05:52.412Z,7.93
2023-04-11T17:08:18.744Z,14.77
2023-04-11T17:10:45.152Z,12.05
2023-04-11T17:13:12.051Z,9.88
2023-04-11T17:15:38.408Z,6.75
2023-04-11T17:18:04.738Z,14.93
2023-04-11T17:20:31.260Z,10.15
2023-04-11T17:22:57.588Z,10.52
2023-04-11T17:25:23.965Z,7.03
2023-04-11T17:27:50.429Z,7.40
2023-04-11T17:30:16.894Z,6.35
2023-04-11T17:32:43.355Z,7.78
2023-04-11T17:35:10.861Z,5.70
2023-04-11T17:37:37.206Z,5.93
2023-04-11T17:40:09.646Z,7.88
2023-04-11T17:42:35.871Z,7.18
2023-04-11T17:45:14.010Z,9.63
2023-04-11T17:47:43.348Z,7.85
2023-04-11T17:50:10.462Z,8.32
2023-04-11T17:52:38.488Z,10.05
2023-04-11T17:55:05.072Z,12.98
2023-04-11T17:57:32.316Z,12.65
2023-04-11T17:59:58.634Z,8.65
2023-04-11T18:02:26.019Z,8.95
2023-04-11T18:04:53.855Z,10.77
2023-04-11T18:07:24.277Z,8.60
2023-04-11T18:09:50.781Z,6.75
2023-04-11T18:12:17.054Z,11.55
2023-04-11T18:14:43.359Z,10.77
2023-04-11T18:17:10.224Z,8.07
2023-04-11T18:19:36.490Z,10.75
2023-04-11T18:22:02.855Z,10.35
2023-04-11T18:24:29.186Z,14.00
2023-04-11T18:26:55.734Z,11.80
2023-04-11T18:29:22.019Z,11.43
2023-04-11T18:31:48.374Z,13.88
2023-04-11T18:34:14.823Z,9.75
2023-04-11T18:36:41.254Z,10.65
2023-04-11T18:39:07.628Z,11.20
2023-04-11T18:41:33.915Z,10.07
2023-04-11T18:44:01.683Z,12.30
2023-04-11T18:46:28.664Z,8.65
2023-04-11T18:48:54.962Z,10.40
2023-04-11T18:51:21.265Z,8.45
2023-04-11T18:53:48.924Z,9.75
2023-04-11T18:56:15.261Z,7.85
2023-04-11T18:58:45.610Z,9.48
2023-04-11T19:01:16.411Z,9.60
2023-04-11T19:03:43.811Z,8.52
2023-04-11T19:06:10.336Z,10.93
2023-04-11T19:08:36.820Z,9.10
2023-04-11T19:11:03.153Z,7.10
2023-04-11T19:13:29.512Z,9.07
2023-04-11T19:15:56.609Z,9.57
2023-04-11T19:18:22.868Z,8.57
2023-04-11T19:20:49.159Z,7.20
2023-04-11T19:23:15.796Z,5.88
2023-04-11T19:25:42.806Z,6.35
2023-04-11T19:28:09.525Z,7.90
2023-04-11T19:30:35.803Z,5.13
2023-04-11T19:33:02.394Z,8.88
2023-04-11T19:35:29.169Z,8.45
2023-04-11T19:37:55.573Z,7.80
2023-04-11T19:40:23.390Z,5.68
2023-04-11T19:42:49.923Z,6.75
2023-04-11T19:45:16.295Z,7.13
2023-04-11T19:47:42.675Z,7.35
2023-04-11T19:50:11.572Z,6.55
2023-04-11T19:52:37.844Z,5.85
2023-04-11T19:55:04.418Z,8.57
2023-04-11T19:57:30.722Z,6.93
2023-04-11T19:59:57.335Z,5.45
2023-04-11T20:02:23.765Z,4.15
2023-04-11T20:04:50.130Z,4.50
2023-04-11T20:07:16.477Z,4.25
2023-04-11T20:09:42.924Z,5.20
2023-04-11T20:12:09.209Z,5.47
2023-04-11T20:14:37.181Z,4.70
2023-04-11T20:17:03.567Z,4.43
2023-04-11T20:19:32.313Z,5.80
2023-04-11T20:22:01.140Z,8.38
2023-04-11T20:24:27.775Z,5.78
2023-04-11T20:26:54.178Z,3.13
2023-04-11T20:29:21.224Z,4.57
2023-04-11T20:31:47.571Z,4.18
2023-04-11T20:34:13.821Z,4.93
2023-04-11T20:36:40.175Z,4.95
2023-04-11T20:39:07.088Z,6.95
2023-04-11T20:41:33.908Z,5.88
2023-04-11T20:44:00.511Z,3.20
2023-04-11T20:46:29.694Z,4.97
2023-04-11T20:48:56.329Z,4.43
2023-04-11T20:51:22.633Z,4.22
2023-04-11T20:53:49.027Z,7.57
2023-04-11T20:56:15.541Z,3.50
2023-04-11T20:58:41.923Z,2.65
2023-04-11T21:01:08.208Z,4.30
2023-04-11T21:03:37.562Z,5.63
2023-04-11T21:06:07.528Z,4.07
2023-04-11T21:08:35.289Z,6.88
2023-04-11T21:11:02.049Z,3.58
2023-04-11T21:13:28.524Z,3.58
2023-04-11T21:15:54.919Z,5.82
2023-04-11T21:18:21.199Z,5.05
2023-04-11T21:20:47.523Z,3.97
2023-04-11T21:23:13.797Z,5.28
2023-04-11T21:25:40.303Z,4.25
2023-04-11T21:28:06.655Z,3.33
2023-04-11T21:30:33.024Z,6.95
2023-04-11T21:32:59.406Z,3.75
2023-04-11T21:35:26.032Z,5.72
2023-04-11T21:37:52.311Z,5.45
2023-04-11T21:40:18.643Z,5.05
2023-04-11T21:42:44.891Z,4.90
2023-04-11T21:45:11.308Z,4.15
2023-04-11T21:47:37.674Z,3.22
2023-04-11T21:50:04.118Z,3.90
2023-04-11T21:52:30.538Z,3.85
2023-04-11T21:54:56.808Z,2.67
2023-04-11T21:57:23.173Z,3.60
2023-04-11T21:59:49.556Z,4.05
2023-04-11T22:02:15.974Z,4.38
2023-04-11T22:05:01.136Z,2.88
2023-04-11T22:07:32.352Z,3.53
2023-04-11T22:10:09.165Z,4.55
2023-04-11T22:12:36.014Z,6.63
2023-04-11T22:15:04.012Z,4.70
2023-04-11T22:17:30.985Z,3.88
2023-04-11T22:20:00.401Z,4.05
2023-04-11T22:22:33.009Z,2.90
2023-04-11T22:24:59.656Z,3.67
2023-04-11T22:27:29.561Z,4.40
2023-04-11T22:29:56.190Z,4.45
2023-04-11T22:32:23.143Z,3.10
2023-04-11T22:34:49.618Z,3.83
2023-04-11T22:37:16.018Z,4.50
2023-04-11T22:39:42.794Z,3.65
2023-04-11T22:42:10.863Z,3.92
2023-04-11T22:44:37.291Z,5.20
2023-04-11T22:47:08.570Z,3.75
2023-04-11T22:49:40.348Z,4.00
2023-04-11T22:52:08.074Z,4.32
2023-04-11T22:54:35.104Z,4.45
2023-04-11T22:57:01.468Z,4.90
2023-04-11T22:59:28.330Z,2.47
2023-04-11T23:01:54.997Z,5.60
2023-04-11T23:04:21.910Z,5.07
2023-04-11T23:06:51.971Z,4.50
2023-04-11T23:09:18.636Z,3.20
2023-04-11T23:11:45.475Z,2.67
2023-04-11T23:14:12.171Z,4.32
2023-04-11T23:16:38.484Z,3.42
2023-04-11T23:19:04.931Z,6.07
2023-04-11T23:21:31.364Z,4.50
2023-04-11T23:23:58.308Z,3.22
2023-04-11T23:26:24.925Z,2.58
2023-04-11T23:28:51.182Z,4.82
2023-04-11T23:31:20.348Z,3.78
2023-04-11T23:33:46.673Z,6.35
2023-04-11T23:36:13.624Z,3.35
2023-04-11T23:38:40.004Z,3.75
2023-04-11T23:41:06.530Z,2.67
2023-04-11T23:43:33.921Z,3.90
2023-04-11T23:46:00.765Z,2.80
2023-04-11T23:48:27.294Z,5.05
2023-04-11T23:50:53.551Z,3.97
2023-04-11T23:53:19.853Z,4.85
2023-04-11T23:55:46.164Z,5.05
2023-04-11T23:58:12.498Z,4.72
